Time;durP1;ratioP1;P1;durP2;ratioP2;P2;SDS_P1;SDS_P2;PMS_P1;PMS_P2;Temp;Humidity;BMP_temperature;BMP_pressure;BME280_temperature;BME280_humidity;BME280_pressure;Samples;Min_cycle;Max_cycle;Signal;HPM_P1;HPM_P2
2024/01/10 00:01:35;;;;;;;4.30;3.25;;;0.50;76.80;;;;;;4748780;30;20036;-87
2024/01/10 00:04:01;;;;;;;3.88;2.70;;;0.50;76.80;;;;;;4713639;30;20071;-87
2024/01/10 00:06:27;;;;;;;4.10;3.15;;;0.50;76.80;;;;;;4727952;30;20033;-87
2024/01/10 00:08:52;;;;;;;3.83;2.58;;;0.50;76.80;;;;;;4730751;30;20047;-87
2024/01/10 00:11:18;;;;;;;3.72;2.88;;;0.50;76.80;;;;;;4734632;30;20036;-88
2024/01/10 00:13:44;;;;;;;5.15;3.10;;;0.50;76.90;;;;;;4734358;30;20177;-88
2024/01/10 00:16:14;;;;;;;3.50;2.72;;;0.50;76.90;;;;;;4733193;30;20032;-87
2024/01/10 00:18:40;;;;;;;3.75;2.88;;;0.50;76.90;;;;;;4717319;30;20064;-88
2024/01/10 00:21:06;;;;;;;3.78;2.72;;;0.50;76.90;;;;;;4747515;30;20103;-88
2024/01/10 00:23:32;;;;;;;4.65;2.88;;;0.40;76.90;;;;;;4719479;30;20048;-88
2024/01/10 00:25:58;;;;;;;4.43;2.90;;;0.40;76.80;;;;;;4720433;30;20028;-88
2024/01/10 00:28:24;;;;;;;4.68;3.05;;;0.40;76.80;;;;;;4721189;30;20071;-87
2024/01/10 00:30:50;;;;;;;3.85;2.80;;;0.40;76.90;;;;;;4732514;30;20048;-87
2024/01/10 00:33:16;;;;;;;4.63;3.25;;;0.40;76.80;;;;;;4749913;30;20028;-88
2024/01/10 00:35:42;;;;;;;4.32;3.03;;;0.40;76.90;;;;;;4715016;30;20110;-87
2024/01/10 00:38:08;;;;;;;3.88;3.00;;;0.40;76.90;;;;;;4730364;30;20044;-87
2024/01/10 00:40:34;;;;;;;3.85;2.85;;;0.40;76.90;;;;;;4747591;30;20292;-87
2024/01/10 00:42:59;;;;;;;4.47;2.80;;;0.30;76.90;;;;;;4727237;30;20577;-87
2024/01/10 00:45:25;;;;;;;4.45;3.13;;;0.40;76.90;;;;;;4727784;30;20386;-87
2024/01/10 00:47:51;;;;;;;4.00;2.95;;;0.30;76.90;;;;;;4731452;30;20513;-87
2024/01/10 00:50:17;;;;;;;4.20;2.88;;;0.40;76.90;;;;;;4714977;30;20124;-87
2024/01/10 00:52:46;;;;;;;3.60;2.90;;;0.30;76.90;;;;;;4731336;30;20032;-87
2024/01/10 00:55:12;;;;;;;3.58;2.80;;;0.40;76.90;;;;;;4726445;30;20044;-86
2024/01/10 00:57:38;;;;;;;4.22;2.90;;;0.30;76.90;;;;;;4717427;30;20036;-87
2024/01/10 01:00:06;;;;;;;3.78;3.00;;;0.30;76.90;;;;;;4732565;30;20054;-87
2024/01/10 01:02:32;;;;;;;4.28;2.92;;;0.30;76.90;;;;;;4716118;30;20475;-86
2024/01/10 01:04:58;;;;;;;5.20;3.38;;;0.30;76.90;;;;;;4713737;30;20115;-87
2024/01/10 01:07:23;;;;;;;3.78;2.92;;;0.30;77.00;;;;;;4716292;30;20132;-88
2024/01/10 01:09:49;;;;;;;3.55;2.70;;;0.30;76.90;;;;;;4725926;30;20504;-87
2024/01/10 01:12:15;;;;;;;3.55;2.67;;;0.30;76.90;;;;;;4731684;30;20040;-87
2024/01/10 01:14:40;;;;;;;3.63;3.00;;;0.20;76.90;;;;;;4714648;30;20051;-88
2024/01/10 01:17:06;;;;;;;4.30;2.95;;;0.20;76.90;;;;;;4711507;30;20451;-88
2024/01/10 01:19:32;;;;;;;4.53;3.08;;;0.30;76.90;;;;;;4714569;30;20040;-87
2024/01/10 01:21:58;;;;;;;3.58;3.03;;;0.20;76.90;;;;;;4727136;30;20396;-87
2024/01/10 01:24:23;;;;;;;4.00;2.90;;;0.20;76.90;;;;;;4732025;30;20096;-87
2024/01/10 01:26:49;;;;;;;4.95;3.28;;;0.20;76.90;;;;;;4726105;30;20040;-87
2024/01/10 01:29:15;;;;;;;4.45;3.15;;;0.20;76.90;;;;;;4732214;30;20061;-87
2024/01/10 01:31:41;;;;;;;4.60;2.85;;;0.20;76.90;;;;;;4735134;30;20060;-87
2024/01/10 01:34:06;;;;;;;3.67;2.95;;;0.20;76.90;;;;;;4723414;30;20032;-87
2024/01/10 01:36:32;;;;;;;3.90;3.00;;;0.20;76.90;;;;;;4724519;30;20032;-88
2024/01/10 01:38:58;;;;;;;4.18;3.03;;;0.10;76.90;;;;;;4730558;30;20045;-88
2024/01/10 01:41:24;;;;;;;3.72;2.90;;;0.20;76.90;;;;;;4735967;30;20039;-87
2024/01/10 01:43:49;;;;;;;3.80;2.88;;;0.20;77.00;;;;;;4739201;30;20432;-88
2024/01/10 01:46:15;;;;;;;3.70;2.85;;;0.20;76.90;;;;;;4751473;30;20422;-87
2024/01/10 01:48:42;;;;;;;4.85;3.25;;;0.20;76.90;;;;;;4738381;30;20029;-86
2024/01/10 01:51:10;;;;;;;3.78;3.08;;;0.10;76.90;;;;;;4720569;30;20033;-88
2024/01/10 01:53:36;;;;;;;4.35;3.30;;;0.10;76.90;;;;;;4725764;30;20054;-87
2024/01/10 01:56:07;;;;;;;3.95;2.90;;;0.10;76.90;;;;;;4744887;30;20057;-87
2024/01/10 01:58:34;;;;;;;3.75;2.75;;;0.10;76.90;;;;;;4733283;30;20105;-87
2024/01/10 02:01:02;;;;;;;5.32;3.35;;;0.10;76.90;;;;;;4710956;30;20064;-88
2024/01/10 02:03:28;;;;;;;3.72;3.17;;;0.10;76.90;;;;;;4754659;30;20139;-88
2024/01/10 02:05:54;;;;;;;4.53;3.38;;;0.10;76.90;;;;;;4728780;30;20502;-87
2024/01/10 02:08:20;;;;;;;3.72;2.67;;;0.10;76.90;;;;;;4732096;30;20555;-87
2024/01/10 02:10:46;;;;;;;4.15;3.00;;;0.10;76.90;;;;;;4716259;30;20118;-87
2024/01/10 02:13:12;;;;;;;4.68;2.90;;;0.10;76.80;;;;;;4717223;30;20042;-87
2024/01/10 02:15:38;;;;;;;3.58;2.95;;;0.10;76.80;;;;;;4714575;30;20047;-87
2024/01/10 02:18:05;;;;;;;3.47;2.78;;;0.10;76.90;;;;;;4732123;30;20064;-88
2024/01/10 02:20:31;;;;;;;4.57;3.33;;;0.00;76.80;;;;;;4717336;30;20075;-87
2024/01/10 02:22:57;;;;;;;3.80;3.20;;;0.10;76.90;;;;;;4733140;30;20089;-87
2024/01/10 02:25:23;;;;;;;4.80;3.47;;;0.00;76.80;;;;;;4719557;30;20430;-87
2024/01/10 02:27:49;;;;;;;3.05;2.75;;;0.00;76.80;;;;;;4727741;30;20060;-86
2024/01/10 02:30:15;;;;;;;3.47;2.83;;;0.00;76.80;;;;;;4734592;30;20083;-87
2024/01/10 02:32:41;;;;;;;3.83;3.10;;;0.00;76.80;;;;;;4715385;30;20063;-86
2024/01/10 02:35:08;;;;;;;4.85;3.25;;;0.00;76.80;;;;;;4717239;30;20032;-86
2024/01/10 02:37:34;;;;;;;5.18;3.42;;;0.00;76.80;;;;;;4748364;30;20043;-87
2024/01/10 02:39:59;;;;;;;4.53;3.13;;;0.00;76.80;;;;;;4732090;30;20028;-86
2024/01/10 02:42:27;;;;;;;4.88;3.38;;;0.00;76.80;;;;;;4735766;30;20566;-87
2024/01/10 02:44:53;;;;;;;4.03;3.10;;;0.00;76.80;;;;;;4728736;30;20032;-87
2024/01/10 02:47:19;;;;;;;4.75;3.10;;;0.00;76.80;;;;;;4709760;30;20029;-86
2024/01/10 02:49:45;;;;;;;3.92;2.97;;;0.00;76.80;;;;;;4746448;30;20504;-86
2024/01/10 02:52:10;;;;;;;4.28;3.08;;;0.00;76.80;;;;;;4729568;30;20548;-86
2024/01/10 02:54:36;;;;;;;5.18;3.20;;;0.00;76.80;;;;;;4736453;30;20036;-87
2024/01/10 02:57:02;;;;;;;3.72;2.80;;;0.00;76.80;;;;;;4715532;30;20043;-87
2024/01/10 02:59:28;;;;;;;4.65;3.33;;;0.00;76.80;;;;;;4746535;30;20111;-86
2024/01/10 03:01:54;;;;;;;4.35;3.10;;;0.00;76.80;;;;;;4728892;30;20374;-87
2024/01/10 03:04:19;;;;;;;4.97;3.25;;;-0.10;76.80;;;;;;4719188;30;20032;-86
2024/01/10 03:06:45;;;;;;;4.80;3.30;;;0.00;76.80;;;;;;4717615;30;20025;-86
2024/01/10 03:09:11;;;;;;;4.75;3.50;;;-0.10;76.80;;;;;;4727552;30;20486;-87
2024/01/10 03:11:37;;;;;;;4.68;3.28;;;-0.10;76.80;;;;;;4743871;30;20045;-87
2024/01/10 03:14:07;;;;;;;3.58;3.00;;;-0.10;76.80;;;;;;4733466;30;20051;-87
2024/01/10 03:16:33;;;;;;;4.20;3.17;;;-0.10;76.80;;;;;;4718110;30;20615;-86
2024/01/10 03:18:59;;;;;;;4.60;3.38;;;-0.10;76.80;;;;;;4728785;30;20047;-86
2024/01/10 03:21:26;;;;;;;4.63;3.35;;;-0.10;76.80;;;;;;4747949;30;20318;-87
2024/01/10 03:24:00;;;;;;;4.25;3.22;;;-0.10;76.80;;;;;;4719307;30;20075;-87
2024/01/10 03:26:27;;;;;;;4.57;3.08;;;-0.10;76.80;;;;;;4732227;30;20033;-87
2024/01/10 03:28:53;;;;;;;3.63;3.05;;;-0.10;76.80;;;;;;4733109;30;20115;-86
2024/01/10 03:31:19;;;;;;;4.22;3.30;;;-0.10;76.80;;;;;;4736318;30;20099;-87
2024/01/10 03:33:45;;;;;;;3.33;2.70;;;-0.10;76.80;;;;;;4744492;30;20059;-87
2024/01/10 03:36:13;;;;;;;4.57;3.30;;;-0.10;76.80;;;;;;4732180;30;20032;-87
2024/01/10 03:38:39;;;;;;;4.25;2.95;;;-0.10;76.80;;;;;;4744654;30;20116;-87
2024/01/10 03:41:05;;;;;;;4.32;3.10;;;-0.20;76.80;;;;;;4726704;30;20032;-86
2024/01/10 03:43:31;;;;;;;4.80;2.95;;;-0.10;76.80;;;;;;4713021;30;20036;-87
2024/01/10 03:45:57;;;;;;;4.30;3.08;;;-0.10;76.80;;;;;;4728071;30;20042;-86
2024/01/10 03:48:23;;;;;;;3.63;2.95;;;-0.10;76.80;;;;;;4747417;30;20032;-86
2024/01/10 03:50:49;;;;;;;4.47;3.35;;;-0.20;76.80;;;;;;4739409;30;20040;-86
2024/01/10 03:53:15;;;;;;;4.88;3.63;;;-0.20;76.80;;;;;;4710989;30;20040;-86
2024/01/10 03:55:41;;;;;;;4.50;3.30;;;-0.20;76.80;;;;;;4738889;30;20066;-86
2024/01/10 03:58:06;;;;;;;4.55;3.33;;;-0.20;76.80;;;;;;4735388;30;20044;-86
2024/01/10 04:00:32;;;;;;;4.90;3.50;;;-0.20;76.80;;;;;;4727263;30;20033;-86
2024/01/10 04:02:58;;;;;;;4.47;3.22;;;-0.20;76.80;;;;;;4731699;30;20180;-86
2024/01/10 04:05:25;;;;;;;5.40;3.28;;;-0.20;76.80;;;;;;4716422;30;20143;-87
2024/01/10 04:07:56;;;;;;;3.75;2.78;;;-0.20;76.80;;;;;;4735225;30;20043;-86
2024/01/10 04:10:22;;;;;;;4.25;3.10;;;-0.20;76.80;;;;;;4730080;30;20125;-85
2024/01/10 04:12:49;;;;;;;5.00;3.30;;;-0.20;76.80;;;;;;4710411;30;20032;-86
2024/01/10 04:15:15;;;;;;;4.95;3.78;;;-0.20;76.80;;;;;;4725589;30;20036;-86
2024/01/10 04:17:41;;;;;;;4.25;3.28;;;-0.20;76.80;;;;;;4720277;30;20047;-86
2024/01/10 04:20:07;;;;;;;5.03;3.53;;;-0.20;76.80;;;;;;4713249;30;20036;-87
2024/01/10 04:22:33;;;;;;;4.60;3.33;;;-0.20;76.90;;;;;;4715306;30;20044;-87
2024/01/10 04:25:00;;;;;;;4.45;3.53;;;-0.30;76.80;;;;;;4730124;30;20039;-85
2024/01/10 04:27:27;;;;;;;5.68;3.35;;;-0.30;76.80;;;;;;4732160;30;20040;-87
2024/01/10 04:29:53;;;;;;;5.53;3.70;;;-0.30;76.80;;;;;;4718961;30;20140;-87
2024/01/10 04:32:19;;;;;;;4.68;2.83;;;-0.30;76.80;;;;;;4716835;30;20051;-87
2024/01/10 04:34:45;;;;;;;4.68;3.45;;;-0.30;76.80;;;;;;4718455;30;20044;-87
2024/01/10 04:37:11;;;;;;;5.78;3.55;;;-0.30;76.80;;;;;;4714468;30;20124;-87
2024/01/10 04:39:42;;;;;;;5.18;3.50;;;-0.30;76.80;;;;;;4728804;30;20115;-89
2024/01/10 04:42:08;;;;;;;4.63;3.22;;;-0.30;76.80;;;;;;4718256;30;20063;-87
2024/01/10 04:44:34;;;;;;;4.65;3.35;;;-0.30;76.90;;;;;;4727041;30;20036;-87
2024/01/10 04:47:00;;;;;;;5.10;3.38;;;-0.30;76.80;;;;;;4716266;30;20059;-87
2024/01/10 04:49:26;;;;;;;5.00;3.70;;;-0.30;76.80;;;;;;4715689;30;20060;-87
2024/01/10 04:51:52;;;;;;;4.35;3.20;;;-0.40;76.80;;;;;;4730201;30;20044;-87
2024/01/10 04:54:18;;;;;;;4.70;3.15;;;-0.30;76.90;;;;;;4716884;30;20040;-87
2024/01/10 04:56:44;;;;;;;4.70;3.38;;;-0.40;76.80;;;;;;4731103;30;20151;-87
2024/01/10 04:59:10;;;;;;;4.93;3.60;;;-0.40;76.80;;;;;;4712895;30;20067;-86
2024/01/10 05:01:36;;;;;;;4.30;3.10;;;-0.40;76.80;;;;;;4727146;30;20033;-87
2024/01/10 05:04:03;;;;;;;4.95;3.80;;;-0.40;76.80;;;;;;4727869;30;20032;-86
2024/01/10 05:06:28;;;;;;;5.35;3.38;;;-0.40;76.80;;;;;;4745296;30;20036;-87
2024/01/10 05:08:57;;;;;;;4.30;3.28;;;-0.40;76.80;;;;;;4727231;30;20055;-86
2024/01/10 05:11:24;;;;;;;5.22;3.38;;;-0.40;76.80;;;;;;4728077;30;20036;-86
2024/01/10 05:13:50;;;;;;;5.85;3.40;;;-0.40;76.80;;;;;;4714707;30;20505;-86
2024/01/10 05:16:17;;;;;;;4.63;3.03;;;-0.40;76.80;;;;;;4739876;30;20043;-87
2024/01/10 05:18:43;;;;;;;4.53;3.25;;;-0.50;76.80;;;;;;4743620;30;20064;-87
2024/01/10 05:21:09;;;;;;;4.55;3.13;;;-0.50;76.80;;;;;;4731949;30;20067;-87
2024/01/10 05:23:35;;;;;;;4.38;3.33;;;-0.40;76.80;;;;;;4730228;30;20540;-86
2024/01/10 05:26:01;;;;;;;5.32;3.53;;;-0.50;76.80;;;;;;4731813;30;20032;-86
2024/01/10 05:28:27;;;;;;;4.13;3.30;;;-0.50;76.80;;;;;;4728868;30;20033;-86
2024/01/10 05:30:53;;;;;;;5.07;3.28;;;-0.50;76.80;;;;;;4715654;30;20067;-86
2024/01/10 05:33:20;;;;;;;5.00;3.92;;;-0.50;76.80;;;;;;4728993;30;20110;-87
2024/01/10 05:35:46;;;;;;;4.93;3.42;;;-0.50;76.80;;;;;;4743914;30;20390;-86
2024/01/10 05:38:12;;;;;;;4.65;3.45;;;-0.50;76.80;;;;;;4744566;30;20032;-86
2024/01/10 05:40:37;;;;;;;4.70;3.63;;;-0.50;76.80;;;;;;4728616;30;20123;-86
2024/01/10 05:43:03;;;;;;;5.35;3.45;;;-0.50;76.80;;;;;;4724667;30;20112;-87
2024/01/10 05:45:29;;;;;;;5.47;3.90;;;-0.50;76.80;;;;;;4729512;30;20039;-87
2024/01/10 05:47:55;;;;;;;4.82;3.25;;;-0.50;76.80;;;;;;4727920;30;20042;-84
2024/01/10 05:50:21;;;;;;;4.47;3.35;;;-0.50;76.80;;;;;;4714242;30;20044;-82
2024/01/10 05:52:47;;;;;;;5.00;3.58;;;-0.50;76.80;;;;;;4720567;30;20049;-84
2024/01/10 05:55:13;;;;;;;5.72;3.85;;;-0.50;76.80;;;;;;4742240;30;20051;-85
2024/01/10 05:57:39;;;;;;;5.55;3.55;;;-0.50;76.70;;;;;;4723427;30;20037;-84
2024/01/10 06:00:09;;;;;;;5.43;3.67;;;-0.50;76.70;;;;;;4718964;30;20047;-85
2024/01/10 06:02:42;;;;;;;4.20;3.40;;;-0.50;76.70;;;;;;4729367;30;20060;-85
2024/01/10 06:05:09;;;;;;;5.25;3.58;;;-0.50;77.40;;;;;;4728122;30;20047;-83
2024/01/10 06:07:40;;;;;;;5.18;3.58;;;-0.60;76.70;;;;;;4735551;30;20098;-86
2024/01/10 06:10:06;;;;;;;4.72;3.38;;;-0.60;76.70;;;;;;4745776;30;20073;-85
2024/01/10 06:12:32;;;;;;;5.75;3.90;;;-0.60;76.80;;;;;;4726836;30;20183;-85
2024/01/10 06:14:58;;;;;;;4.90;3.58;;;-0.60;76.80;;;;;;4728843;30;20119;-85
2024/01/10 06:17:24;;;;;;;6.22;3.42;;;-0.60;76.70;;;;;;4733599;30;20032;-85
2024/01/10 06:19:50;;;;;;;4.25;3.40;;;-0.60;76.80;;;;;;4720585;30;20037;-85
2024/01/10 06:22:17;;;;;;;5.20;3.40;;;-0.60;76.80;;;;;;4726894;30;20082;-84
2024/01/10 06:24:46;;;;;;;5.50;3.30;;;-0.60;76.80;;;;;;4715598;30;20036;-87
2024/01/10 06:27:11;;;;;;;4.75;3.67;;;-0.60;76.80;;;;;;4728764;30;20034;-85
2024/01/10 06:29:37;;;;;;;6.38;3.72;;;-0.60;76.80;;;;;;4717571;30;20052;-86
2024/01/10 06:32:04;;;;;;;5.72;3.85;;;-0.60;76.80;;;;;;4747411;30;20043;-87
2024/01/10 06:34:30;;;;;;;4.78;3.63;;;-0.70;76.70;;;;;;4733682;30;20086;-87
2024/01/10 06:36:55;;;;;;;5.15;3.50;;;-0.60;76.80;;;;;;4733217;30;20036;-86
2024/01/10 06:39:21;;;;;;;5.15;3.35;;;-0.70;76.70;;;;;;4746923;30;20037;-87
2024/01/10 06:41:48;;;;;;;5.32;4.00;;;-0.70;76.70;;;;;;4728748;30;20047;-84
2024/01/10 06:44:14;;;;;;;4.93;3.75;;;-0.70;76.70;;;;;;4732734;30;20070;-88
2024/01/10 06:46:40;;;;;;;5.00;3.70;;;-0.70;76.70;;;;;;4740005;30;20560;-87
2024/01/10 06:49:07;;;;;;;4.82;3.67;;;-0.70;76.70;;;;;;4726678;30;20116;-87
2024/01/10 06:51:33;;;;;;;6.15;3.63;;;-0.70;76.70;;;;;;4731285;30;20056;-87
2024/01/10 06:54:05;;;;;;;5.63;3.70;;;-0.70;76.70;;;;;;4734870;30;20032;-87
2024/01/10 06:56:34;;;;;;;5.75;3.70;;;-0.70;76.70;;;;;;4723979;30;20047;-87
2024/01/10 06:59:00;;;;;;;5.93;3.97;;;-0.70;76.70;;;;;;4733629;30;20036;-87
2024/01/10 07:01:27;;;;;;;5.57;4.03;;;-0.70;76.70;;;;;;4736936;30;20021;-87
2024/01/10 07:03:57;;;;;;;5.43;3.95;;;-0.70;76.70;;;;;;4737661;30;20025;-87
2024/01/10 07:06:23;;;;;;;6.43;4.32;;;-0.70;76.70;;;;;;4722903;30;20095;-87
2024/01/10 07:08:50;;;;;;;5.35;3.92;;;-0.70;76.70;;;;;;4714474;30;20033;-87
2024/01/10 07:11:16;;;;;;;6.53;4.20;;;-0.70;76.70;;;;;;4738865;30;20028;-87
2024/01/10 07:13:42;;;;;;;5.47;4.00;;;-0.70;76.70;;;;;;4739678;30;20036;-86
2024/01/10 07:16:09;;;;;;;5.47;4.03;;;-0.70;76.70;;;;;;4738336;30;20070;-87
2024/01/10 07:18:34;;;;;;;6.05;4.32;;;-0.70;76.70;;;;;;4729862;30;20056;-86
2024/01/10 07:21:00;;;;;;;6.40;4.55;;;-0.70;76.70;;;;;;4731427;30;20498;-88
2024/01/10 07:23:26;;;;;;;5.85;4.00;;;-0.80;76.70;;;;;;4739965;30;20033;-88
2024/01/10 07:25:52;;;;;;;5.82;4.20;;;-0.70;76.70;;;;;;4746767;30;20116;-86
2024/01/10 07:28:19;;;;;;;6.25;4.00;;;-0.70;76.70;;;;;;4751015;30;20024;-86
2024/01/10 07:30:45;;;;;;;5.95;4.03;;;-0.80;76.70;;;;;;4749626;30;20056;-88
2024/01/10 07:33:11;;;;;;;6.47;4.35;;;-0.70;76.70;;;;;;4752150;30;20032;-87
2024/01/10 07:35:38;;;;;;;6.22;4.35;;;-0.80;76.70;;;;;;4721480;30;20106;-87
2024/01/10 07:38:10;;;;;;;6.40;4.25;;;-0.80;76.70;;;;;;4741054;30;20119;-86
2024/01/10 07:40:36;;;;;;;6.30;4.35;;;-0.80;76.70;;;;;;4723092;30;20123;-89
2024/01/10 07:43:02;;;;;;;6.25;4.25;;;-0.80;76.60;;;;;;4738526;30;20582;-86
2024/01/10 07:45:27;;;;;;;6.90;4.65;;;-0.80;76.60;;;;;;4715739;30;20040;-86
2024/01/10 07:47:54;;;;;;;7.57;4.55;;;-0.80;76.70;;;;;;4734042;30;20107;-86
2024/01/10 07:50:20;;;;;;;6.05;4.18;;;-0.80;76.70;;;;;;4731447;30;20028;-86
2024/01/10 07:52:46;;;;;;;7.25;4.40;;;-0.80;76.70;;;;;;4722943;30;20079;-85
2024/01/10 07:55:12;;;;;;;7.13;4.80;;;-0.80;76.70;;;;;;4749999;30;20058;-85
2024/01/10 07:57:39;;;;;;;7.22;4.97;;;-0.80;76.70;;;;;;4733335;30;20118;-81
2024/01/10 08:00:08;;;;;;;6.53;4.10;;;-0.80;76.70;;;;;;4722217;30;20021;-85
2024/01/10 08:02:34;;;;;;;6.68;5.13;;;-0.80;76.70;;;;;;4753014;30;20071;-85
2024/01/10 08:05:05;;;;;;;6.82;5.40;;;-0.80;76.70;;;;;;4730567;30;20052;-85
2024/01/10 08:07:32;;;;;;;7.60;4.90;;;-0.80;76.70;;;;;;4717881;30;20048;-85
2024/01/10 08:09:59;;;;;;;7.28;4.80;;;-0.80;76.70;;;;;;4737111;30;20028;-83
2024/01/10 08:12:25;;;;;;;6.07;4.32;;;-0.80;76.70;;;;;;4729903;30;20096;-84
2024/01/10 08:14:51;;;;;;;7.15;4.55;;;-0.80;76.70;;;;;;4717438;30;20031;-84
2024/01/10 08:17:17;;;;;;;6.60;4.55;;;-0.90;76.70;;;;;;4735662;30;20044;-84
2024/01/10 08:19:43;;;;;;;7.30;5.07;;;-0.80;76.70;;;;;;4718682;30;20037;-87
2024/01/10 08:22:08;;;;;;;6.70;4.53;;;-0.80;76.70;;;;;;4732675;30;20032;-88
2024/01/10 08:24:34;;;;;;;6.35;4.40;;;-0.90;76.90;;;;;;4737617;30;20375;-85
2024/01/10 08:27:00;;;;;;;7.55;5.32;;;-0.80;77.30;;;;;;4721436;30;20119;-87
2024/01/10 08:29:30;;;;;;;7.75;5.65;;;-0.90;76.70;;;;;;4720615;30;20044;-85
2024/01/10 08:31:56;;;;;;;7.43;4.70;;;-0.90;76.70;;;;;;4717799;30;20040;-80
2024/01/10 08:34:22;;;;;;;8.25;5.05;;;-0.90;76.60;;;;;;4732620;30;20036;-81
2024/01/10 08:36:51;;;;;;;7.95;5.13;;;-0.90;76.60;;;;;;4730604;30;20059;-80
2024/01/10 08:39:17;;;;;;;7.30;5.60;;;-0.90;76.70;;;;;;4731047;30;20267;-81
2024/01/10 08:41:44;;;;;;;6.97;4.95;;;-0.90;76.70;;;;;;4735387;30;20040;-81
2024/01/10 08:44:13;;;;;;;7.22;5.20;;;-0.90;76.60;;;;;;4723198;30;20055;-83
2024/01/10 08:46:39;;;;;;;8.23;5.60;;;-0.90;76.70;;;;;;4736393;30;20071;-86
2024/01/10 08:49:05;;;;;;;8.73;5.47;;;-0.90;76.60;;;;;;4731878;30;20040;-85
2024/01/10 08:51:30;;;;;;;7.82;5.45;;;-0.90;76.70;;;;;;4740224;30;20086;-83
2024/01/10 08:53:56;;;;;;;8.13;5.50;;;-0.90;76.60;;;;;;4727004;30;20502;-85
2024/01/10 08:56:23;;;;;;;7.53;5.45;;;-0.90;76.60;;;;;;4731768;30;20116;-86
2024/01/10 08:58:49;;;;;;;8.50;5.80;;;-0.90;76.70;;;;;;4733353;30;20502;-85
2024/01/10 09:01:15;;;;;;;9.77;5.57;;;-0.90;76.60;;;;;;4722189;30;20043;-88
2024/01/10 09:03:41;;;;;;;8.77;6.03;;;-0.90;76.60;;;;;;4755249;30;20032;-92
2024/01/10 09:06:07;;;;;;;9.75;6.00;;;-0.90;76.60;;;;;;4737631;30;20498;-91
2024/01/10 09:08:34;;;;;;;8.02;5.63;;;-0.80;76.60;;;;;;4733767;30;20055;-91
2024/01/10 09:11:00;;;;;;;8.70;5.35;;;-0.80;76.60;;;;;;4748096;30;20117;-96
2024/01/10 09:13:25;;;;;;;8.13;5.97;;;-0.80;76.70;;;;;;4743351;30;20487;-93
2024/01/10 09:15:51;;;;;;;8.27;5.40;;;-0.80;76.60;;;;;;4736475;30;20039;-93
2024/01/10 09:18:17;;;;;;;7.32;5.65;;;-0.80;76.60;;;;;;4718580;30;20096;-94
2024/01/10 09:20:43;;;;;;;7.53;5.18;;;-0.80;76.60;;;;;;4732204;30;20035;-92
2024/01/10 09:23:10;;;;;;;7.97;5.03;;;-0.80;76.60;;;;;;4743515;30;20028;-86
2024/01/10 09:25:36;;;;;;;8.48;5.90;;;-0.80;76.50;;;;;;4737591;30;20117;-87
2024/01/10 09:28:04;;;;;;;7.03;5.30;;;-0.80;76.50;;;;;;4728135;30;20107;-88
2024/01/10 09:30:29;;;;;;;7.93;5.72;;;-0.80;76.50;;;;;;4734076;30;20137;-85
2024/01/10 09:32:56;;;;;;;8.75;5.80;;;-0.80;76.50;;;;;;4739595;30;20036;-88
2024/01/10 09:35:22;;;;;;;8.07;5.70;;;-0.80;76.50;;;;;;4721913;30;20240;-84
2024/01/10 09:37:49;;;;;;;7.63;5.43;;;-0.70;76.50;;;;;;4730200;30;20051;-87
2024/01/10 09:40:16;;;;;;;7.30;5.22;;;-0.70;76.40;;;;;;4718573;30;20035;-88
2024/01/10 09:42:43;;;;;;;7.75;5.47;;;-0.70;76.40;;;;;;4712484;30;20073;-92
2024/01/10 09:45:12;;;;;;;9.13;6.10;;;-0.70;76.40;;;;;;4724025;30;20036;-93
2024/01/10 09:47:42;;;;;;;7.90;5.28;;;-0.60;76.50;;;;;;4744714;30;20039;-94
2024/01/10 09:50:10;;;;;;;9.57;5.47;;;-0.60;76.50;;;;;;4740457;30;20047;-91
2024/01/10 09:52:49;;;;;;;7.38;5.03;;;-0.60;76.50;;;;;;4720630;30;20041;-88
2024/01/10 09:55:17;;;;;;;7.45;5.65;;;-0.60;76.40;;;;;;4737983;30;20036;-87
2024/01/10 09:57:42;;;;;;;7.93;5.47;;;-0.60;76.40;;;;;;4720348;30;20025;-88
2024/01/10 10:00:13;;;;;;;8.55;5.53;;;-0.60;76.40;;;;;;4724267;30;20025;-88
2024/01/10 10:02:39;;;;;;;7.57;5.63;;;-0.50;76.40;;;;;;4741241;30;20033;-89
2024/01/10 10:05:15;;;;;;;8.75;5.65;;;-0.50;76.40;;;;;;4745401;30;20044;-79
2024/01/10 10:07:44;;;;;;;8.25;5.22;;;-0.50;76.40;;;;;;4726393;30;20032;-87
2024/01/10 10:10:12;;;;;;;7.75;5.38;;;-0.50;76.40;;;;;;4734502;30;20433;-86
2024/01/10 10:12:56;;;;;;;7.32;5.53;;;-0.40;76.40;;;;;;4742655;30;20040;-86
2024/01/10 10:15:23;;;;;;;7.85;5.63;;;-0.40;76.50;;;;;;4731243;30;20114;-86
2024/01/10 10:17:50;;;;;;;9.35;6.15;;;-0.40;76.40;;;;;;4726588;30;20036;-86
2024/01/10 10:20:22;;;;;;;8.35;5.57;;;-0.40;76.40;;;;;;4726778;30;20024;-85
2024/01/10 10:23:01;;;;;;;8.23;5.63;;;-0.40;76.40;;;;;;4722198;30;20581;-86
2024/01/10 10:25:32;;;;;;;9.23;5.80;;;-0.40;76.40;;;;;;4743488;30;20101;-86
2024/01/10 10:27:59;;;;;;;7.35;5.00;;;-0.40;76.40;;;;;;4754516;30;20120;-86
2024/01/10 10:30:25;;;;;;;7.75;5.38;;;-0.30;76.50;;;;;;4750709;30;20052;-86
2024/01/10 10:32:51;;;;;;;7.78;5.05;;;-0.30;76.50;;;;;;4738087;30;20043;-86
2024/01/10 10:35:20;;;;;;;7.80;5.80;;;-0.30;76.50;;;;;;4724200;30;20040;-86
2024/01/10 10:37:49;;;;;;;8.32;6.10;;;-0.30;76.50;;;;;;4739597;30;20032;-87
2024/01/10 10:40:14;;;;;;;7.88;5.70;;;-0.30;76.50;;;;;;4745393;30;20519;-87
2024/01/10 10:42:46;;;;;;;7.85;5.28;;;-0.30;76.50;;;;;;4744853;30;20036;-90
2024/01/10 10:45:16;;;;;;;8.75;6.35;;;-0.30;76.50;;;;;;4745252;30;20086;-87
2024/01/10 10:47:45;;;;;;;8.15;5.78;;;-0.20;76.60;;;;;;4744039;30;20093;-87
2024/01/10 10:50:22;;;;;;;7.30;5.07;;;-0.20;76.60;;;;;;4743337;30;20060;-89
2024/01/10 10:52:49;;;;;;;8.15;5.32;;;-0.20;76.60;;;;;;4748830;30;20086;-91
2024/01/10 10:55:17;;;;;;;8.32;5.38;;;-0.20;76.60;;;;;;4733754;30;20031;-91
2024/01/10 10:57:47;;;;;;;7.97;5.05;;;-0.20;76.60;;;;;;4751317;30;20039;-89
2024/01/10 11:00:17;;;;;;;9.10;6.03;;;-0.20;76.60;;;;;;4754401;30;20063;-88
2024/01/10 11:02:44;;;;;;;7.82;5.45;;;-0.20;76.60;;;;;;4741104;30;20063;-88
2024/01/10 11:05:11;;;;;;;8.18;5.78;;;-0.10;76.60;;;;;;4731308;30;20067;-84
2024/01/10 11:07:43;;;;;;;8.85;5.38;;;-0.10;77.20;;;;;;4739545;30;20028;-86
2024/01/10 11:10:20;;;;;;;8.35;5.32;;;-0.10;76.60;;;;;;4753542;30;20036;-88
2024/01/10 11:13:27;;;;;;;8.75;5.82;;;-0.10;76.60;;;;;;4737086;30;20486;-88
2024/01/10 11:16:25;;;;;;;7.55;5.68;;;0.00;76.70;;;;;;4742582;30;20135;-87
2024/01/10 11:19:21;;;;;;;7.75;5.88;;;-0.10;76.60;;;;;;4734759;30;20040;-91
2024/01/10 11:22:19;;;;;;;7.72;5.40;;;0.00;76.70;;;;;;4748567;30;20025;-88
2024/01/10 11:24:45;;;;;;;8.20;5.88;;;0.00;76.70;;;;;;4729867;30;20136;-89
2024/01/10 11:27:12;;;;;;;8.15;5.97;;;0.00;76.60;;;;;;4745522;30;20064;-88
2024/01/10 11:29:39;;;;;;;7.90;5.70;;;0.00;76.60;;;;;;4734767;30;20052;-90
2024/01/10 11:32:15;;;;;;;9.07;6.05;;;0.00;76.70;;;;;;4729482;30;20029;-89
2024/01/10 11:35:12;;;;;;;8.10;6.20;;;0.10;76.70;;;;;;4716160;30;20071;-89
2024/01/10 11:37:44;;;;;;;9.63;5.93;;;0.10;76.70;;;;;;4742149;30;20569;-88
2024/01/10 11:40:11;;;;;;;8.48;5.68;;;0.10;76.60;;;;;;4720864;30;20046;-87
2024/01/10 11:42:45;;;;;;;7.70;5.82;;;0.10;76.70;;;;;;4722992;30;20055;-89
2024/01/10 11:45:33;;;;;;;8.40;5.72;;;0.20;76.70;;;;;;4738745;30;20028;-88
2024/01/10 11:48:00;;;;;;;8.45;6.07;;;0.20;76.70;;;;;;4716041;30;20044;-88
2024/01/10 11:50:27;;;;;;;8.55;6.03;;;0.20;76.70;;;;;;4736699;30;20032;-89
2024/01/10 11:52:56;;;;;;;8.73;6.13;;;0.20;76.70;;;;;;4720883;30;20032;-86
2024/01/10 11:55:47;;;;;;;10.20;7.13;;;0.20;76.70;;;;;;4732737;30;20027;-86
2024/01/10 11:58:12;;;;;;;9.07;5.50;;;0.30;76.80;;;;;;4720471;30;20541;-88
2024/01/10 12:00:40;;;;;;;8.90;6.10;;;0.30;76.70;;;;;;4730587;30;20024;-87
2024/01/10 12:03:07;;;;;;;9.35;6.28;;;0.30;76.70;;;;;;4737930;30;20040;-89
2024/01/10 12:05:35;;;;;;;8.60;6.25;;;0.30;76.80;;;;;;4734946;30;20041;-89
2024/01/10 12:08:06;;;;;;;8.38;5.50;;;0.30;76.80;;;;;;4736547;30;20040;-87
2024/01/10 12:10:36;;;;;;;8.13;5.88;;;0.30;76.80;;;;;;4733310;30;20052;-88
2024/01/10 12:13:03;;;;;;;9.18;6.18;;;0.40;76.80;;;;;;4721879;30;20024;-88
2024/01/10 12:15:29;;;;;;;8.80;5.70;;;0.40;76.80;;;;;;4737229;30;20082;-88
2024/01/10 12:17:55;;;;;;;8.90;5.60;;;0.40;76.70;;;;;;4718656;30;20029;-90
2024/01/10 12:20:21;;;;;;;8.38;6.13;;;0.50;76.80;;;;;;4726162;30;20114;-87
2024/01/10 12:22:47;;;;;;;8.95;5.72;;;0.50;76.80;;;;;;4742846;30;20068;-87
2024/01/10 12:25:13;;;;;;;8.50;5.70;;;0.50;76.80;;;;;;4734880;30;20024;-87
2024/01/10 12:27:39;;;;;;;8.05;5.70;;;0.50;76.80;;;;;;4737093;30;20544;-91
2024/01/10 12:30:06;;;;;;;9.80;5.65;;;0.50;76.80;;;;;;4719622;30;20053;-84
2024/01/10 12:32:32;;;;;;;9.10;5.97;;;0.60;76.80;;;;;;4718348;30;20097;-91
2024/01/10 12:35:01;;;;;;;9.98;6.65;;;0.60;76.80;;;;;;4737244;30;20493;-90
2024/01/10 12:37:27;;;;;;;8.50;5.47;;;0.60;76.70;;;;;;4736443;30;20060;-92
2024/01/10 12:39:53;;;;;;;7.85;5.47;;;0.60;76.70;;;;;;4717865;30;20094;-93
2024/01/10 12:42:19;;;;;;;7.97;5.57;;;0.70;76.80;;;;;;4718584;30;20702;-91
2024/01/10 12:44:46;;;;;;;8.45;5.47;;;0.70;76.70;;;;;;4732652;30;20033;-91
2024/01/10 12:47:21;;;;;;;8.50;5.45;;;0.70;76.70;;;;;;4725948;30;20028;-91
2024/01/10 12:49:47;;;;;;;8.13;5.82;;;0.80;76.70;;;;;;4734056;30;20048;-93
2024/01/10 12:52:13;;;;;;;8.45;5.93;;;0.80;76.70;;;;;;4719947;30;20036;-91